createdAt,value
2022-09-28T00:00:28.734Z,99072.06
2022-09-28T00:02:58.619Z,99069.41
2022-09-28T00:05:26.918Z,99066.78
2022-09-28T00:07:54.089Z,99065.91
2022-09-28T00:10:22.996Z,99070.13
2022-09-28T00:12:49.786Z,99069.34
2022-09-28T00:15:16.521Z,99071.94
2022-09-28T00:17:46.340Z,99070.91
2022-09-28T00:20:13.134Z,99072.09
2022-09-28T00:22:39.897Z,99064.13
2022-09-28T00:25:06.647Z,99066.09
2022-09-28T00:27:33.427Z,99061.44
2022-09-28T00:30:00.292Z,99057.38
2022-09-28T00:32:27.886Z,99061.75
2022-09-28T00:34:55.002Z,99054.41
2022-09-28T00:37:21.856Z,99048.78
2022-09-28T00:39:48.675Z,99044.03
2022-09-28T00:42:15.515Z,99047.63
2022-09-28T00:44:42.397Z,99046.94
2022-09-28T00:47:09.178Z,99048.16
2022-09-28T00:49:36.000Z,99042.91
2022-09-28T00:52:02.756Z,99043.75
2022-09-28T00:54:29.496Z,99043.34
2022-09-28T00:56:56.378Z,99040.13
2022-09-28T00:59:24.702Z,99041.75
2022-09-28T01:01:51.572Z,99040.81
2022-09-28T01:04:18.382Z,99037.50
2022-09-28T01:06:45.157Z,99039.97
2022-09-28T01:09:11.964Z,99040.22
2022-09-28T01:11:38.733Z,99033.16
2022-09-28T01:14:05.470Z,99030.41
2022-09-28T01:16:32.273Z,99022.81
2022-09-28T01:18:59.096Z,99021.31
2022-09-28T01:21:25.913Z,99011.13
2022-09-28T01:23:52.669Z,99003.94
2022-09-28T01:26:19.439Z,99012.66
2022-09-28T01:28:46.180Z,99006.66
2022-09-28T01:31:12.964Z,99005.28
2022-09-28T01:33:39.765Z,99006.50
2022-09-28T01:36:06.509Z,98993.88
2022-09-28T01:38:33.261Z,98991.81
2022-09-28T01:41:00.079Z,98989.63
2022-09-28T01:43:26.906Z,98982.78
2022-09-28T01:45:53.726Z,98980.34
2022-09-28T01:48:20.522Z,98977.63
2022-09-28T01:50:47.291Z,98967.16
2022-09-28T01:53:14.045Z,98975.97
2022-09-28T01:55:40.989Z,98975.41
2022-09-28T01:58:07.743Z,98979.84
2022-09-28T02:00:34.545Z,98974.66
2022-09-28T02:03:01.360Z,98975.16
2022-09-28T02:05:28.100Z,98969.38
2022-09-28T02:07:54.961Z,98968.84
2022-09-28T02:10:21.789Z,98969.03
2022-09-28T02:12:48.550Z,98978.41
2022-09-28T02:15:15.311Z,98980.34
2022-09-28T02:17:42.080Z,98980.69
2022-09-28T02:20:08.905Z,98975.22
2022-09-28T02:22:35.679Z,98986.88
2022-09-28T02:25:02.440Z,98975.38
2022-09-28T02:27:29.665Z,98971.50
2022-09-28T02:29:56.407Z,98963.53
2022-09-28T02:32:23.163Z,98964.94
2022-09-28T02:34:49.922Z,98958.91
2022-09-28T02:37:16.673Z,98947.09
2022-09-28T02:39:43.444Z,98956.09
2022-09-28T02:42:10.208Z,98957.75
2022-09-28T02:44:37.011Z,98964.94
2022-09-28T02:47:03.773Z,98959.03
2022-09-28T02:49:30.672Z,98960.69
2022-09-28T02:51:57.571Z,98964.03
2022-09-28T02:54:24.341Z,98956.50
2022-09-28T02:56:51.132Z,98955.97
2022-09-28T02:59:18.521Z,98957.63
2022-09-28T03:01:45.344Z,98956.41
2022-09-28T03:04:12.178Z,98948.16
2022-09-28T03:06:39.273Z,98948.38
2022-09-28T03:09:06.049Z,98939.09
2022-09-28T03:11:32.897Z,98936.38
2022-09-28T03:13:59.682Z,98937.44
2022-09-28T03:16:27.485Z,98938.16
2022-09-28T03:18:54.351Z,98930.69
2022-09-28T03:21:21.112Z,98941.34
2022-09-28T03:23:47.961Z,98935.81
2022-09-28T03:26:14.745Z,98937.88
2022-09-28T03:28:41.492Z,98936.41
2022-09-28T03:31:08.293Z,98934.84
2022-09-28T03:33:35.118Z,98933.81
2022-09-28T03:36:01.859Z,98943.84
2022-09-28T03:38:28.624Z,98943.31
2022-09-28T03:40:55.509Z,98946.13
2022-09-28T03:43:22.296Z,98934.13
2022-09-28T03:45:49.107Z,98931.34
2022-09-28T03:48:15.876Z,98931.66
2022-09-28T03:50:42.613Z,98917.09
2022-09-28T03:53:09.380Z,98926.44
2022-09-28T03:55:36.121Z,98921.41
2022-09-28T03:58:02.870Z,98914.72
2022-09-28T04:00:29.872Z,98920.03
2022-09-28T04:02:56.614Z,98923.84
2022-09-28T04:05:23.369Z,98916.47
2022-09-28T04:07:50.384Z,98911.97
2022-09-28T04:10:17.216Z,98914.22
2022-09-28T04:12:45.813Z,98910.53
2022-09-28T04:15:12.597Z,98913.59
2022-09-28T04:17:40.232Z,98907.34
2022-09-28T04:20:07.346Z,98901.03
2022-09-28T04:22:34.194Z,98894.16
2022-09-28T04:25:00.952Z,98898.38
2022-09-28T04:27:46.471Z,98899.75
2022-09-28T04:30:13.232Z,98896.19
2022-09-28T04:32:40.294Z,98889.59
2022-09-28T04:35:07.080Z,98894.56
2022-09-28T04:37:33.860Z,98893.72
2022-09-28T04:40:00.614Z,98895.28
2022-09-28T04:42:27.410Z,98892.63
2022-09-28T04:44:54.164Z,98893.44
2022-09-28T04:47:20.932Z,98893.69
2022-09-28T04:49:47.705Z,98883.63
2022-09-28T04:52:18.228Z,98888.97
2022-09-28T04:54:45.325Z,98885.16
2022-09-28T04:57:12.093Z,98884.16
2022-09-28T04:59:38.938Z,98878.50
2022-09-28T05:02:05.763Z,98887.06
2022-09-28T05:04:32.603Z,98883.78
2022-09-28T05:06:59.368Z,98883.19
2022-09-28T05:09:26.128Z,98865.88
2022-09-28T05:11:53.051Z,98875.03
2022-09-28T05:14:21.845Z,98864.56
2022-09-28T05:16:48.711Z,98874.19
2022-09-28T05:19:15.645Z,98868.16
2022-09-28T05:21:42.411Z,98870.34
2022-09-28T05:24:09.151Z,98864.00
2022-09-28T05:26:35.973Z,98861.63
2022-09-28T05:29:02.758Z,98864.47
2022-09-28T05:31:29.579Z,98862.22
2022-09-28T05:33:56.371Z,98856.53
2022-09-28T05:36:24.434Z,98861.13
2022-09-28T05:38:51.215Z,98867.91
2022-09-28T05:41:18.068Z,98860.84
2022-09-28T05:43:45.600Z,98866.13
2022-09-28T05:46:12.395Z,98852.13
2022-09-28T05:48:39.475Z,98854.31
2022-09-28T05:51:06.222Z,98860.97
2022-09-28T05:53:32.982Z,98850.56
2022-09-28T05:55:59.816Z,98856.03
2022-09-28T05:58:26.644Z,98856.06
2022-09-28T06:00:53.445Z,98863.47
2022-09-28T06:03:20.250Z,98858.25
2022-09-28T06:05:47.339Z,98850.94
2022-09-28T06:08:14.078Z,98848.81
2022-09-28T06:10:40.943Z,98847.44
2022-09-28T06:13:07.773Z,98853.31
2022-09-28T06:15:34.526Z,98849.19
2022-09-28T06:18:01.283Z,98857.34
2022-09-28T06:20:28.067Z,98847.13
2022-09-28T06:22:54.818Z,98860.59
2022-09-28T06:25:22.126Z,98846.63
2022-09-28T06:27:49.800Z,98848.84
2022-09-28T06:30:16.563Z,98849.44
2022-09-28T06:32:43.334Z,98848.28
2022-09-28T06:35:10.087Z,98847.78
2022-09-28T06:37:36.842Z,98845.88
2022-09-28T06:40:03.644Z,98849.44
2022-09-28T06:42:30.394Z,98846.41
2022-09-28T06:44:58.335Z,98852.19
2022-09-28T06:47:25.129Z,98852.75
2022-09-28T06:49:55.181Z,98851.09
2022-09-28T06:52:21.973Z,98843.00
2022-09-28T06:54:48.757Z,98850.47
2022-09-28T06:57:15.615Z,98852.22
2022-09-28T06:59:42.364Z,98853.91
2022-09-28T07:02:09.180Z,98849.78
2022-09-28T07:04:35.949Z,98852.06
2022-09-28T07:07:02.702Z,98861.97
2022-09-28T07:09:33.515Z,98860.91
2022-09-28T07:12:01.220Z,98861.22
2022-09-28T07:14:46.249Z,98854.94
2022-09-28T07:17:14.879Z,98858.25
2022-09-28T07:19:41.892Z,98868.16
2022-09-28T07:22:08.730Z,98868.97
2022-09-28T07:24:35.542Z,98873.56
2022-09-28T07:27:05.488Z,98863.22
2022-09-28T07:29:32.232Z,98869.50
2022-09-28T07:31:59.682Z,98863.63
2022-09-28T07:34:26.423Z,98865.69
2022-09-28T07:36:57.349Z,98875.91
2022-09-28T07:39:24.233Z,98878.31
2022-09-28T07:41:50.982Z,98876.75
2022-09-28T07:44:18.905Z,98873.53
2022-09-28T07:46:46.511Z,98870.28
2022-09-28T07:49:15.452Z,98874.66
2022-09-28T07:51:44.749Z,98873.91
2022-09-28T07:54:11.516Z,98874.75
2022-09-28T07:56:38.267Z,98878.59
2022-09-28T07:59:05.009Z,98883.81
2022-09-28T08:01:31.797Z,98881.91
2022-09-28T08:03:58.604Z,98878.34
2022-09-28T08:06:25.410Z,98875.31
2022-09-28T08:08:56.308Z,98874.38
2022-09-28T08:11:23.135Z,98872.97
2022-09-28T08:13:51.371Z,98874.66
2022-09-28T08:16:18.908Z,98882.03
2022-09-28T08:18:45.785Z,98888.63
2022-09-28T08:21:31.733Z,98887.88
2022-09-28T08:23:58.702Z,98888.00
2022-09-28T08:26:25.445Z,98885.63
2022-09-28T08:28:52.240Z,98891.47
2022-09-28T08:31:19.052Z,98888.16
2022-09-28T08:33:45.844Z,98886.81
2022-09-28T08:36:12.606Z,98886.28
2022-09-28T08:38:39.398Z,98899.47
2022-09-28T08:41:06.220Z,98895.38
2022-09-28T08:43:33.089Z,98900.31
2022-09-28T08:45:59.884Z,98897.84
2022-09-28T08:48:56.253Z,98905.63
2022-09-28T08:51:28.095Z,98905.44
2022-09-28T08:53:54.910Z,98894.34
2022-09-28T08:56:21.712Z,98905.41
2022-09-28T08:58:48.698Z,98908.09
2022-09-28T09:01:16.517Z,98907.84
2022-09-28T09:03:45.173Z,98916.31
2022-09-28T09:06:16.381Z,98911.97
2022-09-28T09:08:45.217Z,98917.00
2022-09-28T09:11:12.402Z,98919.16
2022-09-28T09:13:39.216Z,98917.53
2022-09-28T09:16:06.045Z,98924.78
2022-09-28T09:18:32.786Z,98926.16
2022-09-28T09:20:59.618Z,98925.63
2022-09-28T09:23:28.238Z,98920.13
2022-09-28T09:25:55.023Z,98922.06
2022-09-28T09:28:21.776Z,98925.91
2022-09-28T09:30:48.570Z,98928.69
2022-09-28T09:33:15.950Z,98930.66
2022-09-28T09:35:42.748Z,98929.47
2022-09-28T09:38:09.688Z,98932.53
2022-09-28T09:40:36.460Z,98933.38
2022-09-28T09:43:03.252Z,98935.91
2022-09-28T09:45:30.015Z,98940.25
2022-09-28T09:47:56.771Z,98940.88
2022-09-28T09:50:29.916Z,98937.88
2022-09-28T09:52:57.465Z,98941.75
2022-09-28T09:55:29.645Z,98939.53
2022-09-28T09:57:57.197Z,98940.72
2022-09-28T10:00:24.115Z,98950.38
2022-09-28T10:02:51.062Z,98945.69
2022-09-28T10:05:17.956Z,98937.47
2022-09-28T10:07:44.729Z,98947.09
2022-09-28T10:10:11.497Z,98945.28
2022-09-28T10:12:38.256Z,98944.34
2022-09-28T10:15:06.512Z,98945.34
2022-09-28T10:17:33.259Z,98949.94
2022-09-28T10:20:00.004Z,98949.75
2022-09-28T10:22:27.684Z,98946.25
2022-09-28T10:24:57.477Z,98953.97
2022-09-28T10:27:24.260Z,98954.81
2022-09-28T10:29:51.020Z,98956.75
2022-09-28T10:32:17.767Z,98952.25
2022-09-28T10:34:48.729Z,98951.09
2022-09-28T10:37:18.033Z,98959.69
2022-09-28T10:39:44.811Z,98953.94
2022-09-28T10:42:11.636Z,98956.69
2022-09-28T10:44:38.726Z,98956.16
2022-09-28T10:47:05.473Z,98953.13
2022-09-28T10:49:32.232Z,98953.44
2022-09-28T10:51:59.021Z,98953.50
2022-09-28T10:54:25.843Z,98960.38
2022-09-28T10:56:52.597Z,98963.97
2022-09-28T10:59:19.412Z,98959.31
2022-09-28T11:01:46.234Z,98966.75
2022-09-28T11:04:14.560Z,98966.28
2022-09-28T11:06:41.797Z,98969.13
2022-09-28T11:09:08.556Z,98968.94
2022-09-28T11:11:35.326Z,98971.97
2022-09-28T11:14:03.353Z,98963.25
2022-09-28T11:16:30.225Z,98973.06
2022-09-28T11:18:57.102Z,98959.41
2022-09-28T11:21:23.901Z,98971.84
2022-09-28T11:23:50.662Z,98968.78
2022-09-28T11:26:18.759Z,98966.88
2022-09-28T11:28:45.825Z,98967.09
2022-09-28T11:31:12.674Z,98962.84
2022-09-28T11:33:39.538Z,98966.72
2022-09-28T11:36:06.342Z,98968.59
2022-09-28T11:38:36.258Z,98964.03
2022-09-28T11:41:03.412Z,98962.00
2022-09-28T11:43:30.255Z,98968.38
2022-09-28T11:45:57.095Z,98978.13
2022-09-28T11:48:23.899Z,98978.50
2022-09-28T11:50:50.750Z,98975.75
2022-09-28T11:53:17.768Z,98973.16
2022-09-28T11:55:44.534Z,98976.38
2022-09-28T11:58:11.621Z,98977.88
2022-09-28T12:00:38.392Z,98974.03
2022-09-28T12:03:05.289Z,98978.16
2022-09-28T12:05:32.171Z,98977.88
2022-09-28T12:07:58.905Z,98975.84
2022-09-28T12:10:25.636Z,98967.38
2022-09-28T12:12:52.423Z,98968.56
2022-09-28T12:15:19.170Z,98972.75
2022-09-28T12:17:46.236Z,98969.13
2022-09-28T12:20:13.318Z,98977.09
2022-09-28T12:22:40.081Z,98975.47
2022-09-28T12:25:06.830Z,98976.56
2022-09-28T12:27:33.747Z,98978.50
2022-09-28T12:30:00.508Z,98984.63
2022-09-28T12:32:27.244Z,98977.00
2022-09-28T12:34:54.002Z,98978.41
2022-09-28T12:37:20.745Z,98980.88
2022-09-28T12:39:57.422Z,98980.34
2022-09-28T12:42:27.560Z,98975.97
2022-09-28T12:44:59.372Z,98976.94
2022-09-28T12:47:26.519Z,98975.91
2022-09-28T12:55:11.804Z,98985.00
2022-09-28T12:57:38.574Z,98989.53
2022-09-28T13:00:05.356Z,98992.03
2022-09-28T13:02:32.350Z,98991.00
2022-09-28T13:04:59.146Z,98993.88
2022-09-28T13:07:25.897Z,99004.97
2022-09-28T13:09:52.685Z,99004.66
2022-09-28T13:12:19.434Z,99005.84
2022-09-28T13:14:46.177Z,99006.72
2022-09-28T13:17:12.937Z,99000.66
2022-09-28T13:19:40.219Z,99005.41
2022-09-28T13:22:07.031Z,99003.75
2022-09-28T13:24:33.962Z,99005.13
2022-09-28T13:27:01.081Z,99004.72
2022-09-28T13:29:28.023Z,98997.69
2022-09-28T13:31:54.908Z,98991.34
2022-09-28T13:34:22.232Z,99005.09
2022-09-28T13:36:48.974Z,99010.13
2022-09-28T13:39:15.733Z,99009.53
2022-09-28T13:41:42.470Z,99001.72
2022-09-28T13:44:09.213Z,99007.91
2022-09-28T13:46:36.040Z,99012.72
2022-09-28T13:49:02.806Z,99013.81
2022-09-28T13:51:29.566Z,99020.44
2022-09-28T13:53:56.327Z,99017.19
2022-09-28T13:56:23.217Z,99016.41
2022-09-28T13:58:49.957Z,99026.31
2022-09-28T14:01:17.225Z,99028.22
2022-09-28T14:03:43.984Z,99023.53
2022-09-28T14:06:11.449Z,99013.56
2022-09-28T14:08:38.386Z,99029.63
2022-09-28T14:11:05.127Z,99024.09
2022-09-28T14:13:31.874Z,99037.06
2022-09-28T14:15:58.685Z,99035.03
2022-09-28T14:18:25.456Z,99034.78
2022-09-28T14:20:52.213Z,99040.56
2022-09-28T14:23:19.008Z,99041.97
2022-09-28T14:25:45.825Z,99045.16
2022-09-28T14:28:12.612Z,99050.69
2022-09-28T14:30:39.397Z,99046.28
2022-09-28T14:33:06.237Z,99049.06
2022-09-28T14:35:32.990Z,99046.88
2022-09-28T14:38:18.635Z,99038.69
2022-09-28T14:41:04.034Z,99044.53
2022-09-28T14:43:30.930Z,99045.00
2022-09-28T14:45:57.745Z,99046.97
2022-09-28T14:48:24.519Z,99045.47
2022-09-28T14:50:51.385Z,99049.41
2022-09-28T14:53:19.497Z,99051.97
2022-09-28T14:55:49.760Z,99054.09
2022-09-28T14:58:16.605Z,99052.00
2022-09-28T15:00:43.389Z,99052.69
2022-09-28T15:03:12.276Z,99059.34
2022-09-28T15:05:39.291Z,99063.28
2022-09-28T15:08:07.853Z,99059.44
2022-09-28T15:10:34.665Z,99061.16
2022-09-28T15:13:01.788Z,99070.53
2022-09-28T15:15:29.190Z,99065.28
2022-09-28T15:17:56.002Z,99062.88
2022-09-28T15:20:24.357Z,99065.63
2022-09-28T15:22:51.533Z,99065.03
2022-09-28T15:25:19.834Z,99058.03
2022-09-28T15:27:48.343Z,99054.63
2022-09-28T15:30:15.099Z,99069.41
2022-09-28T15:32:41.841Z,99067.53
2022-09-28T15:35:08.601Z,99070.97
2022-09-28T15:37:39.636Z,99066.97
2022-09-28T15:40:07.256Z,99069.22
2022-09-28T15:42:36.111Z,99069.78
2022-09-28T15:45:02.882Z,99077.06
2022-09-28T15:47:29.624Z,99081.81
2022-09-28T15:49:59.466Z,99082.59
2022-09-28T15:52:26.241Z,99087.28
2022-09-28T15:54:53.916Z,99090.38
2022-09-28T15:57:20.686Z,99081.69
2022-09-28T15:59:47.438Z,99079.38
2022-09-28T16:02:14.230Z,99085.28
2022-09-28T16:04:41.072Z,99078.91
2022-09-28T16:07:08.965Z,99092.50
2022-09-28T16:09:40.933Z,99080.56
2022-09-28T16:12:08.926Z,99094.16
2022-09-28T16:14:35.684Z,99097.59
2022-09-28T16:17:03.842Z,99099.16
2022-09-28T16:19:30.605Z,99105.78
2022-09-28T16:21:57.349Z,99103.59
2022-09-28T16:24:24.160Z,99106.53
2022-09-28T16:26:50.929Z,99106.66
2022-09-28T16:29:20.310Z,99109.84
2022-09-28T16:31:52.551Z,99120.31
2022-09-28T16:34:19.885Z,99123.91
2022-09-28T16:36:47.089Z,99123.41
2022-09-28T16:39:14.113Z,99116.78
2022-09-28T16:41:40.867Z,99123.25
2022-09-28T16:44:07.720Z,99132.59
2022-09-28T16:46:36.958Z,99122.09
2022-09-28T16:49:05.649Z,99127.56
2022-09-28T16:51:32.854Z,99125.16
2022-09-28T16:54:18.440Z,99130.78
2022-09-28T16:56:45.254Z,99127.78
2022-09-28T16:59:15.830Z,99135.16
2022-09-28T17:01:43.720Z,99143.56
2022-09-28T17:04:11.984Z,99134.28
2022-09-28T17:06:38.735Z,99133.66
2022-09-28T17:09:07.008Z,99140.09
2022-09-28T17:11:33.819Z,99147.56
2022-09-28T17:14:02.830Z,99150.59
2022-09-28T17:19:18.269Z,99139.22
2022-09-28T17:21:45.161Z,99147.47
2022-09-28T17:24:12.022Z,99145.31
2022-09-28T17:26:39.509Z,99154.22
2022-09-28T17:29:09.704Z,99161.97
2022-09-28T17:31:36.487Z,99158.97
2022-09-28T17:34:03.235Z,99163.56
2022-09-28T17:36:30.376Z,99175.22
2022-09-28T17:38:57.200Z,99178.06
2022-09-28T17:41:23.973Z,99177.84
2022-09-28T17:43:50.770Z,99175.44
2022-09-28T17:46:17.613Z,99183.25
2022-09-28T17:48:46.936Z,99186.66
2022-09-28T17:51:13.704Z,99181.44
2022-09-28T17:53:40.449Z,99187.72
2022-09-28T17:56:07.192Z,99191.63
2022-09-28T17:58:34.296Z,99183.16
2022-09-28T18:01:01.164Z,99182.06
2022-09-28T18:03:27.939Z,99189.56
2022-09-28T18:05:54.729Z,99191.78
2022-09-28T18:08:21.477Z,99192.69
2022-09-28T18:10:48.241Z,99186.06
2022-09-28T18:13:15.041Z,99204.00
2022-09-28T18:15:41.836Z,99197.63
2022-09-28T18:18:09.509Z,99201.16
2022-09-28T18:20:36.275Z,99201.28
2022-09-28T18:23:03.028Z,99195.44
2022-09-28T18:25:29.945Z,99206.84
2022-09-28T18:27:57.435Z,99213.16
2022-09-28T18:30:24.202Z,99209.38
2022-09-28T18:32:51.029Z,99217.44
2022-09-28T18:35:22.616Z,99222.94
2022-09-28T18:37:50.021Z,99217.94
2022-09-28T18:40:16.979Z,99219.09
2022-09-28T18:42:43.896Z,99216.41
2022-09-28T18:45:11.174Z,99224.56
2022-09-28T18:47:38.257Z,99216.69
2022-09-28T18:50:05.016Z,99221.53
2022-09-28T18:52:31.772Z,99226.03
2022-09-28T18:54:58.541Z,99219.84
2022-09-28T18:57:25.336Z,99219.25
2022-09-28T18:59:52.133Z,99224.09
2022-09-28T19:02:19.906Z,99226.69
2022-09-28T19:04:46.766Z,99235.16
2022-09-28T19:07:13.499Z,99220.03
2022-09-28T19:09:43.853Z,99226.16
2022-09-28T19:12:10.613Z,99234.41
2022-09-28T19:14:37.357Z,99231.66
2022-09-28T19:17:04.196Z,99238.31
2022-09-28T19:19:31.637Z,99236.38
2022-09-28T19:21:58.425Z,99242.84
2022-09-28T19:24:25.226Z,99235.28
2022-09-28T19:26:54.753Z,99237.69
2022-09-28T19:29:21.616Z,99240.69
2022-09-28T19:31:48.388Z,99247.66
2022-09-28T19:34:15.486Z,99250.19
2022-09-28T19:36:42.352Z,99251.47
2022-09-28T19:39:09.176Z,99253.84
2022-09-28T19:41:49.147Z,99253.97
2022-09-28T19:44:21.013Z,99260.59
2022-09-28T19:46:47.796Z,99252.31
2022-09-28T19:49:14.570Z,99261.06
2022-09-28T19:52:01.692Z,99259.13
2022-09-28T19:54:32.079Z,99263.25
2022-09-28T19:57:07.315Z,99268.75
2022-09-28T19:59:34.164Z,99275.72
2022-09-28T20:02:01.977Z,99264.97
2022-09-28T20:04:28.825Z,99267.88
2022-09-28T20:06:55.596Z,99265.78
2022-09-28T20:09:22.430Z,99269.34
2022-09-28T20:11:51.213Z,99273.28
2022-09-28T20:14:18.592Z,99285.25
2022-09-28T20:16:46.198Z,99286.88
2022-09-28T20:19:12.985Z,99289.22
2022-09-28T20:21:39.774Z,99294.75
2022-09-28T20:24:06.543Z,99291.56
2022-09-28T20:26:37.706Z,99297.97
2022-09-28T20:29:04.616Z,99297.84
2022-09-28T20:31:31.412Z,99293.56
2022-09-28T20:33:58.241Z,99296.16
2022-09-28T20:36:25.003Z,99301.25
2022-09-28T20:38:52.988Z,99301.75
2022-09-28T20:41:19.796Z,99302.59
2022-09-28T20:43:46.677Z,99301.50
2022-09-28T20:46:13.615Z,99300.97
2022-09-28T20:48:40.561Z,99309.09
2022-09-28T20:51:10.120Z,99292.03
2022-09-28T20:53:36.867Z,99297.91
2022-09-28T20:56:03.651Z,99310.31
2022-09-28T20:58:30.946Z,99308.44
2022-09-28T21:00:57.696Z,99310.81
2022-09-28T21:03:24.888Z,99302.53
2022-09-28T21:05:51.701Z,99316.13
2022-09-28T21:08:18.618Z,99315.97
2022-09-28T21:10:45.478Z,99319.41
2022-09-28T21:13:12.298Z,99320.34
2022-09-28T21:15:39.115Z,99326.66
2022-09-28T21:18:05.914Z,99329.25
2022-09-28T21:20:32.694Z,99322.91
2022-09-28T21:22:59.452Z,99327.06
2022-09-28T21:25:26.205Z,99321.41
2022-09-28T21:27:53.081Z,99315.97
2022-09-28T21:30:20.068Z,99320.84
2022-09-28T21:32:46.872Z,99320.75
2022-09-28T21:35:13.646Z,99333.28
2022-09-28T21:37:40.469Z,99334.56
2022-09-28T21:40:09.649Z,99336.69
2022-09-28T21:42:36.407Z,99335.03
2022-09-28T21:45:03.191Z,99343.75
2022-09-28T21:47:29.941Z,99351.78
2022-09-28T21:49:56.709Z,99344.63
2022-09-28T21:52:23.531Z,99342.56
2022-09-28T21:54:50.283Z,99345.88
2022-09-28T21:57:18.931Z,99351.38
2022-09-28T21:59:46.986Z,99351.94
2022-09-28T22:02:13.885Z,99354.88
2022-09-28T22:04:40.909Z,99354.16
2022-09-28T22:07:07.698Z,99349.91
2022-09-28T22:09:34.456Z,99350.00
2022-09-28T22:12:01.223Z,99349.19
2022-09-28T22:14:27.969Z,99346.38
2022-09-28T22:16:54.720Z,99355.28
2022-09-28T22:19:21.504Z,99350.53
2022-09-28T22:21:48.280Z,99357.72
2022-09-28T22:24:15.073Z,99360.44
2022-09-28T22:26:42.201Z,99357.88
2022-09-28T22:29:09.119Z,99361.84
2022-09-28T22:31:36.010Z,99356.97
2022-09-28T22:34:02.824Z,99356.44
2022-09-28T22:36:29.561Z,99359.53
2022-09-28T22:38:56.301Z,99367.72
2022-09-28T22:41:23.309Z,99363.50
2022-09-28T22:43:50.128Z,99364.13
2022-09-28T22:46:16.930Z,99363.69
2022-09-28T22:48:43.754Z,99362.19
2022-09-28T22:51:10.530Z,99366.53
2022-09-28T22:53:37.741Z,99373.50
2022-09-28T22:56:05.504Z,99364.47
2022-09-28T22:58:32.509Z,99363.41
2022-09-28T23:00:59.369Z,99366.31
2022-09-28T23:03:26.144Z,99371.78
2022-09-28T23:05:53.865Z,99372.03
2022-09-28T23:08:20.669Z,99373.59
2022-09-28T23:10:47.438Z,99370.13
2022-09-28T23:13:14.211Z,99374.09
2022-09-28T23:15:41.061Z,99374.38
2022-09-28T23:18:08.493Z,99372.94
2022-09-28T23:20:36.000Z,99369.53
2022-09-28T23:23:02.741Z,99375.38
2022-09-28T23:25:29.501Z,99369.22
2022-09-28T23:27:56.244Z,99364.72
2022-09-28T23:30:23.093Z,99361.78
2022-09-28T23:32:50.011Z,99365.03
2022-09-28T23:35:16.753Z,99371.97
2022-09-28T23:37:43.493Z,99369.38
2022-09-28T23:40:10.260Z,99366.63
2022-09-28T23:42:37.163Z,99367.34
2022-09-28T23:45:03.914Z,99380.91
2022-09-28T23:47:30.742Z,99371.56
2022-09-28T23:49:57.501Z,99373.47
2022-09-28T23:52:24.240Z,99367.84
2022-09-28T23:54:51.008Z,99378.84
2022-09-28T23:57:17.750Z,99372.09
2022-09-28T23:59:44.492Z,99382.25
